createdAt,value
2022-10-26T00:00:31.184Z,95235.31
2022-10-26T00:01:32.868Z,95241.47
2022-10-26T00:02:34.545Z,95229.72
2022-10-26T00:03:37.421Z,95231.22
2022-10-26T00:04:38.958Z,95231.22
2022-10-26T00:05:40.659Z,95227.09
2022-10-26T00:06:42.173Z,95232.72
2022-10-26T00:07:43.700Z,95225.59
2022-10-26T00:08:46.010Z,95227.09
2022-10-26T00:09:47.554Z,95231.41
2022-10-26T00:10:49.061Z,95234.94
2022-10-26T00:11:50.596Z,95229.34
2022-10-26T00:12:52.579Z,95231.41
2022-10-26T00:13:54.150Z,95229.91
2022-10-26T00:14:55.695Z,95226.34
2022-10-26T00:15:57.397Z,95229.91
2022-10-26T00:16:58.952Z,95234.94
2022-10-26T00:18:00.502Z,95231.22
2022-10-26T00:19:02.029Z,95236.81
2022-10-26T00:20:03.779Z,95234.75
2022-10-26T00:21:06.758Z,95226.91
2022-10-26T00:22:08.271Z,95234.94
2022-10-26T00:23:09.786Z,95231.22
2022-10-26T00:24:12.485Z,95231.22
2022-10-26T00:25:14.102Z,95235.31
2022-10-26T00:26:15.635Z,95235.84
2022-10-26T00:27:17.155Z,95234.56
2022-10-26T00:28:18.660Z,95235.31
2022-10-26T00:29:20.282Z,95233.81
2022-10-26T00:30:21.785Z,95235.31
2022-10-26T00:31:24.700Z,95232.53
2022-10-26T00:32:26.336Z,95232.53
2022-10-26T00:33:27.998Z,95233.81
2022-10-26T00:34:29.575Z,95240.94
2022-10-26T00:35:45.045Z,95233.81
2022-10-26T00:36:47.659Z,95239.06
2022-10-26T00:37:49.387Z,95234.19
2022-10-26T00:38:56.331Z,95236.81
2022-10-26T00:39:57.853Z,95241.34
2022-10-26T00:40:59.469Z,95242.09
2022-10-26T00:42:01.239Z,95234.19
2022-10-26T00:43:02.792Z,95238.31
2022-10-26T00:44:41.696Z,95236.41
2022-10-26T00:45:45.215Z,95237.00
2022-10-26T00:46:46.742Z,95237.22
2022-10-26T00:48:01.723Z,95236.81
2022-10-26T00:49:16.948Z,95237.22
2022-10-26T00:50:24.706Z,95224.50
2022-10-26T00:51:33.056Z,95233.13
2022-10-26T00:52:35.177Z,95227.72
2022-10-26T00:53:37.125Z,95231.28
2022-10-26T00:54:38.783Z,95230.53
2022-10-26T00:55:45.155Z,95231.63
2022-10-26T00:56:54.922Z,95225.44
2022-10-26T00:57:56.736Z,95225.09
2022-10-26T00:59:03.303Z,95222.13
2022-10-26T01:00:07.422Z,95223.78
2022-10-26T01:01:09.190Z,95219.50
2022-10-26T01:02:11.439Z,95223.59
2022-10-26T01:03:13.011Z,95224.91
2022-10-26T01:04:15.475Z,95224.91
2022-10-26T01:05:18.524Z,95220.06
2022-10-26T01:06:21.672Z,95221.56
2022-10-26T01:07:24.601Z,95217.78
2022-10-26T01:08:28.607Z,95216.28
2022-10-26T01:09:30.378Z,95216.28
2022-10-26T01:10:32.781Z,95221.16
2022-10-26T01:11:34.350Z,95216.28
2022-10-26T01:12:36.331Z,95221.16
2022-10-26T01:13:37.971Z,95216.28
2022-10-26T01:14:39.990Z,95215.53
2022-10-26T01:16:14.879Z,95217.19
2022-10-26T01:17:32.224Z,95207.69
2022-10-26T01:18:47.801Z,95209.19
2022-10-26T01:20:39.754Z,95213.31
2022-10-26T01:21:51.282Z,95215.53
2022-10-26T01:23:12.617Z,95216.44
2022-10-26T01:24:32.997Z,95214.19
2022-10-26T01:25:43.454Z,95217.19
2022-10-26T01:27:00.153Z,95210.28
2022-10-26T01:28:07.526Z,95223.56
2022-10-26T01:29:43.574Z,95220.34
2022-10-26T01:30:48.806Z,95220.19
2022-10-26T01:31:59.996Z,95219.78
2022-10-26T01:33:20.437Z,95218.28
2022-10-26T01:34:30.414Z,95224.13
2022-10-26T01:35:52.728Z,95216.59
2022-10-26T01:37:03.794Z,95218.50
2022-10-26T01:38:11.946Z,95215.91
2022-10-26T01:39:23.499Z,95216.97
2022-10-26T01:40:49.766Z,95214.75
2022-10-26T01:41:57.815Z,95210.28
2022-10-26T01:43:05.626Z,95211.38
2022-10-26T01:44:18.425Z,95200.16
2022-10-26T01:45:20.027Z,95203.94
2022-10-26T01:46:24.695Z,95202.44
2022-10-26T01:47:28.911Z,95196.09
2022-10-26T01:48:30.594Z,95200.38
2022-10-26T01:49:38.191Z,95202.97
2022-10-26T01:50:41.877Z,95194.78
2022-10-26T01:51:45.459Z,95191.97
2022-10-26T01:52:50.094Z,95195.88
2022-10-26T01:53:51.622Z,95200.16
2022-10-26T01:55:00.893Z,95185.97
2022-10-26T01:56:02.682Z,95201.69
2022-10-26T01:57:07.155Z,95196.84
2022-10-26T01:58:33.561Z,95199.78
2022-10-26T01:59:57.458Z,95197.53
2022-10-26T02:01:01.607Z,95201.69
2022-10-26T02:02:26.815Z,95202.03
2022-10-26T02:03:51.315Z,95199.97
2022-10-26T02:04:58.525Z,95198.88
2022-10-26T02:06:24.462Z,95194.38
2022-10-26T02:07:40.105Z,95199.06
2022-10-26T02:09:00.409Z,95194.91
2022-10-26T02:10:25.040Z,95200.50
2022-10-26T02:11:48.590Z,95195.66
2022-10-26T02:12:58.491Z,95191.56
2022-10-26T02:14:17.365Z,95191.34
2022-10-26T02:15:29.947Z,95197.19
2022-10-26T02:17:02.429Z,95200.50
2022-10-26T02:18:28.157Z,95207.09
2022-10-26T02:19:42.719Z,95212.69
2022-10-26T02:20:50.418Z,95201.69
2022-10-26T02:21:57.889Z,95211.19
2022-10-26T02:23:04.210Z,95202.78
2022-10-26T02:24:09.294Z,95204.28
2022-10-26T02:25:48.084Z,95209.50
2022-10-26T02:26:53.195Z,95212.13
2022-10-26T02:27:59.916Z,95212.69
2022-10-26T02:29:06.177Z,95211.38
2022-10-26T02:30:09.552Z,95211.19
2022-10-26T02:31:13.754Z,95205.03
2022-10-26T02:32:18.403Z,95214.00
2022-10-26T02:33:22.051Z,95206.34
2022-10-26T02:34:27.825Z,95212.47
2022-10-26T02:35:32.539Z,95202.78
2022-10-26T02:36:38.990Z,95212.47
2022-10-26T02:37:42.231Z,95212.69
2022-10-26T02:38:46.955Z,95205.38
2022-10-26T02:39:51.117Z,95216.59
2022-10-26T02:40:54.343Z,95213.25
2022-10-26T02:41:56.763Z,95214.00
2022-10-26T02:43:04.388Z,95214.53
2022-10-26T02:44:13.182Z,95212.47
2022-10-26T02:45:21.331Z,95219.59
2022-10-26T02:46:26.122Z,95217.72
2022-10-26T02:47:27.929Z,95209.88
2022-10-26T02:48:29.710Z,95214.00
2022-10-26T02:49:31.599Z,95218.09
2022-10-26T02:50:43.130Z,95213.59
2022-10-26T02:51:55.432Z,95217.34
2022-10-26T02:53:43.639Z,95212.84
2022-10-26T02:55:04.924Z,95215.44
2022-10-26T02:56:21.542Z,95209.09
2022-10-26T02:57:23.025Z,95209.50
2022-10-26T02:58:29.641Z,95222.34
2022-10-26T02:59:36.377Z,95216.00
2022-10-26T03:00:38.523Z,95212.38
2022-10-26T03:01:41.885Z,95218.00
2022-10-26T03:02:48.380Z,95213.19
2022-10-26T03:03:50.373Z,95220.59
2022-10-26T03:04:52.741Z,95226.97
2022-10-26T03:05:54.448Z,95219.88
2022-10-26T03:06:56.282Z,95219.88
2022-10-26T03:07:58.728Z,95224.72
2022-10-26T03:09:00.299Z,95230.31
2022-10-26T03:10:01.878Z,95227.72
2022-10-26T03:11:03.430Z,95229.75
2022-10-26T03:12:05.293Z,95238.72
2022-10-26T03:13:06.818Z,95238.72
2022-10-26T03:14:08.345Z,95235.38
2022-10-26T03:15:10.211Z,95234.06
2022-10-26T03:16:11.810Z,95245.09
2022-10-26T03:17:13.322Z,95236.88
2022-10-26T03:18:14.900Z,95241.97
2022-10-26T03:19:16.809Z,95236.88
2022-10-26T03:20:18.393Z,95245.50
2022-10-26T03:21:19.965Z,95246.25
2022-10-26T03:22:21.755Z,95255.22
2022-10-26T03:23:23.263Z,95241.22
2022-10-26T03:24:24.838Z,95249.63
2022-10-26T03:25:27.169Z,95249.81
2022-10-26T03:26:28.722Z,95248.31
2022-10-26T03:27:30.369Z,95252.44
2022-10-26T03:28:31.902Z,95255.72
2022-10-26T03:29:33.402Z,95255.22
2022-10-26T03:30:34.920Z,95258.78
2022-10-26T03:31:36.454Z,95258.78
2022-10-26T03:32:38.405Z,95252.44
2022-10-26T03:33:39.950Z,95252.09
2022-10-26T03:34:41.450Z,95254.66
2022-10-26T03:35:42.999Z,95260.28
2022-10-26T03:36:44.497Z,95256.72
2022-10-26T03:37:46.739Z,95259.53
2022-10-26T03:38:48.429Z,95253.91
2022-10-26T03:39:49.971Z,95258.22
2022-10-26T03:40:51.730Z,95255.41
2022-10-26T03:42:55.739Z,95258.78
2022-10-26T03:43:57.262Z,95258.03
2022-10-26T03:44:58.751Z,95259.53
2022-10-26T03:46:00.335Z,95261.03
2022-10-26T03:47:01.842Z,95254.66
2022-10-26T03:48:03.559Z,95259.53
2022-10-26T03:49:05.319Z,95260.50
2022-10-26T03:50:07.099Z,95259.53
2022-10-26T03:51:08.647Z,95260.28
2022-10-26T03:52:10.218Z,95259.53
2022-10-26T03:53:11.747Z,95260.28
2022-10-26T03:54:13.304Z,95261.03
2022-10-26T03:55:15.346Z,95255.41
2022-10-26T03:56:16.855Z,95253.91
2022-10-26T03:57:18.526Z,95258.78
2022-10-26T03:58:20.077Z,95251.13
2022-10-26T03:59:21.709Z,95249.81
2022-10-26T04:00:23.259Z,95250.56
2022-10-26T04:01:24.796Z,95251.31
2022-10-26T04:02:26.341Z,95253.59
2022-10-26T04:03:27.927Z,95255.81
2022-10-26T04:04:29.552Z,95255.81
2022-10-26T04:05:31.311Z,95256.03
2022-10-26T04:06:32.878Z,95257.31
2022-10-26T04:07:34.500Z,95260.34
2022-10-26T04:08:36.083Z,95253.41
2022-10-26T04:09:37.635Z,95256.97
2022-10-26T04:10:39.183Z,95257.53
2022-10-26T04:11:40.695Z,95257.53
2022-10-26T04:12:42.195Z,95258.84
2022-10-26T04:13:43.752Z,95257.31
2022-10-26T04:14:45.328Z,95260.13
2022-10-26T04:15:46.942Z,95261.44
2022-10-26T04:16:48.546Z,95256.56
2022-10-26T04:17:56.957Z,95259.94
2022-10-26T04:18:58.526Z,95264.44
2022-10-26T04:20:00.046Z,95268.53
2022-10-26T04:21:02.461Z,95257.31
2022-10-26T04:22:04.018Z,95265.72
2022-10-26T04:23:06.868Z,95262.94
2022-10-26T04:24:09.941Z,95268.53
2022-10-26T04:25:13.543Z,95262.94
2022-10-26T04:26:15.079Z,95265.72
2022-10-26T04:27:16.732Z,95259.38
2022-10-26T04:28:18.258Z,95264.03
2022-10-26T04:29:19.822Z,95261.25
2022-10-26T04:30:21.870Z,95268.34
2022-10-26T04:31:23.493Z,95261.25
2022-10-26T04:32:25.163Z,95254.13
2022-10-26T04:33:26.729Z,95262.53
2022-10-26T04:34:28.290Z,95259.19
2022-10-26T04:35:29.916Z,95264.56
2022-10-26T04:36:31.538Z,95259.94
2022-10-26T04:37:34.135Z,95259.94
2022-10-26T04:38:35.684Z,95260.50
2022-10-26T04:39:37.271Z,95262.53
2022-10-26T04:40:38.797Z,95265.31
2022-10-26T04:41:40.302Z,95272.97
2022-10-26T04:42:47.182Z,95268.69
2022-10-26T04:43:48.939Z,95266.84
2022-10-26T04:44:50.469Z,95268.13
2022-10-26T04:45:58.072Z,95266.63
2022-10-26T04:46:59.564Z,95265.31
2022-10-26T04:48:06.389Z,95276.53
2022-10-26T04:49:07.929Z,95279.34
2022-10-26T04:50:11.547Z,95274.28
2022-10-26T04:51:13.123Z,95272.97
2022-10-26T04:52:14.661Z,95278.59
2022-10-26T04:53:16.412Z,95275.78
2022-10-26T04:54:17.927Z,95279.34
2022-10-26T04:55:19.449Z,95279.34
2022-10-26T04:56:20.981Z,95279.34
2022-10-26T04:57:22.578Z,95278.59
2022-10-26T04:58:24.213Z,95284.19
2022-10-26T04:59:25.798Z,95277.31
2022-10-26T05:00:27.369Z,95278.59
2022-10-26T05:01:29.380Z,95277.84
2022-10-26T05:02:31.077Z,95283.44
2022-10-26T05:03:32.617Z,95280.63
2022-10-26T05:04:34.123Z,95276.53
2022-10-26T05:05:36.804Z,95284.19
2022-10-26T05:06:38.330Z,95283.44
2022-10-26T05:07:39.896Z,95284.19
2022-10-26T05:08:41.419Z,95288.31
2022-10-26T05:09:43.252Z,95287.75
2022-10-26T05:10:49.994Z,95290.09
2022-10-26T05:11:51.534Z,95284.94
2022-10-26T05:12:54.616Z,95293.16
2022-10-26T05:13:56.163Z,95283.44
2022-10-26T05:14:59.139Z,95281.94
2022-10-26T05:16:00.675Z,95286.25
2022-10-26T05:17:02.207Z,95284.94
2022-10-26T05:18:05.690Z,95285.91
2022-10-26T05:19:07.283Z,95285.91
2022-10-26T05:20:13.127Z,95278.25
2022-10-26T05:21:19.375Z,95283.84
2022-10-26T05:22:24.673Z,95283.84
2022-10-26T05:23:26.229Z,95282.53
2022-10-26T05:24:27.862Z,95282.53
2022-10-26T05:25:32.341Z,95279.56
2022-10-26T05:26:33.967Z,95282.53
2022-10-26T05:27:35.495Z,95281.25
2022-10-26T05:28:39.619Z,95285.34
2022-10-26T05:29:41.131Z,95285.34
2022-10-26T05:30:45.726Z,95294.53
2022-10-26T05:31:47.277Z,95289.13
2022-10-26T05:32:55.678Z,95296.56
2022-10-26T05:33:57.201Z,95301.06
2022-10-26T05:34:58.725Z,95299.56
2022-10-26T05:36:00.430Z,95299.56
2022-10-26T05:37:02.255Z,95295.47
2022-10-26T05:38:14.442Z,95302.16
2022-10-26T05:39:16.555Z,95306.69
2022-10-26T05:40:18.141Z,95307.44
2022-10-26T05:41:19.780Z,95309.47
2022-10-26T05:42:21.373Z,95313.81
2022-10-26T05:43:24.297Z,95306.91
2022-10-26T05:44:25.841Z,95312.50
2022-10-26T05:45:28.105Z,95305.41
2022-10-26T05:46:29.641Z,95309.69
2022-10-26T05:47:31.162Z,95308.19
2022-10-26T05:48:32.719Z,95312.50
2022-10-26T05:49:34.291Z,95310.44
2022-10-26T05:50:35.919Z,95315.31
2022-10-26T05:51:37.661Z,95316.81
2022-10-26T05:52:43.603Z,95320.91
2022-10-26T05:53:45.180Z,95319.03
2022-10-26T05:54:46.675Z,95317.56
2022-10-26T05:55:48.516Z,95319.03
2022-10-26T05:56:50.335Z,95325.22
2022-10-26T05:57:52.486Z,95321.84
2022-10-26T05:58:54.468Z,95324.13
2022-10-26T05:59:56.282Z,95320.56
2022-10-26T06:01:22.783Z,95325.22
2022-10-26T06:02:35.078Z,95332.13
2022-10-26T06:03:56.911Z,95332.88
2022-10-26T06:05:03.802Z,95325.44
2022-10-26T06:06:07.881Z,95331.03
2022-10-26T06:07:14.878Z,95332.53
2022-10-26T06:08:16.630Z,95332.53
2022-10-26T06:09:18.372Z,95336.09
2022-10-26T06:10:20.746Z,95341.88
2022-10-26T06:11:22.567Z,95338.88
2022-10-26T06:12:26.569Z,95346.31
2022-10-26T06:13:28.606Z,95339.03
2022-10-26T06:14:30.491Z,95343.34
2022-10-26T06:15:37.550Z,95340.88
2022-10-26T06:17:03.353Z,95345.50
2022-10-26T06:18:22.213Z,95342.94
2022-10-26T06:19:23.752Z,95344.84
2022-10-26T06:20:34.654Z,95344.09
2022-10-26T06:21:38.994Z,95341.06
2022-10-26T06:23:02.351Z,95347.00
2022-10-26T06:24:45.385Z,95341.41
2022-10-26T06:26:08.448Z,95350.44
2022-10-26T06:27:34.335Z,95342.94
2022-10-26T06:28:59.577Z,95341.63
2022-10-26T06:30:04.459Z,95350.44
2022-10-26T06:31:06.149Z,95350.44
2022-10-26T06:32:09.929Z,95344.66
2022-10-26T06:33:24.693Z,95354.53
2022-10-26T06:34:35.360Z,95348.94
2022-10-26T06:35:37.077Z,95357.53
2022-10-26T06:36:40.347Z,95353.47
2022-10-26T06:37:45.691Z,95347.44
2022-10-26T06:38:49.191Z,95345.59
2022-10-26T06:39:54.696Z,95347.06
2022-10-26T06:40:57.369Z,95353.47
2022-10-26T06:41:59.295Z,95352.69
2022-10-26T06:43:01.211Z,95347.84
2022-10-26T06:44:04.057Z,95339.44
2022-10-26T06:45:06.431Z,95354.00
2022-10-26T06:46:16.715Z,95342.03
2022-10-26T06:47:27.161Z,95349.69
2022-10-26T06:48:30.920Z,95349.34
2022-10-26T06:49:36.108Z,95347.44
2022-10-26T06:50:50.184Z,95347.63
2022-10-26T06:51:58.700Z,95351.94
2022-10-26T06:53:33.720Z,95353.81
2022-10-26T06:54:55.696Z,95353.25
2022-10-26T06:55:59.946Z,95353.66
2022-10-26T06:57:01.671Z,95363.56
2022-10-26T06:58:04.071Z,95360.56
2022-10-26T06:59:16.126Z,95358.66
2022-10-26T07:00:20.491Z,95356.47
2022-10-26T07:01:22.194Z,95354.41
2022-10-26T07:02:24.225Z,95360.75
2022-10-26T07:03:26.001Z,95359.47
2022-10-26T07:04:27.554Z,95360.75
2022-10-26T07:05:29.122Z,95358.16
2022-10-26T07:06:32.440Z,95366.56
2022-10-26T07:07:40.403Z,95368.41
2022-10-26T07:08:41.991Z,95362.47
2022-10-26T07:09:43.699Z,95365.09
2022-10-26T07:10:46.777Z,95361.50
2022-10-26T07:11:48.395Z,95371.97
2022-10-26T07:12:49.925Z,95366.56
2022-10-26T07:13:51.892Z,95360.97
2022-10-26T07:14:53.382Z,95370.13
2022-10-26T07:15:54.967Z,95369.38
2022-10-26T07:16:57.083Z,95372.19
2022-10-26T07:17:58.712Z,95366.56
2022-10-26T07:19:00.206Z,95366.56
2022-10-26T07:20:01.778Z,95366.03
2022-10-26T07:21:03.455Z,95367.00
2022-10-26T07:22:04.995Z,95364.38
2022-10-26T07:23:08.575Z,95367.41
2022-10-26T07:24:10.319Z,95368.91
2022-10-26T07:25:12.512Z,95370.41
2022-10-26T07:26:14.103Z,95368.38
2022-10-26T07:27:15.952Z,95364.03
2022-10-26T07:28:17.471Z,95367.41
2022-10-26T07:29:19.062Z,95364.81
2022-10-26T07:30:20.571Z,95369.09
2022-10-26T07:31:22.134Z,95360.13
2022-10-26T07:32:24.068Z,95373.41
2022-10-26T07:33:25.698Z,95366.50
2022-10-26T07:34:27.249Z,95368.56
2022-10-26T07:35:28.908Z,95361.44
2022-10-26T07:36:30.565Z,95363.69
2022-10-26T07:37:32.075Z,95360.88
2022-10-26T07:38:33.637Z,95360.69
2022-10-26T07:39:35.179Z,95367.81
2022-10-26T07:40:38.102Z,95363.69
2022-10-26T07:41:39.681Z,95365.22
2022-10-26T07:42:43.105Z,95362.41
2022-10-26T07:43:47.998Z,95365.00
2022-10-26T07:44:49.674Z,95365.22
2022-10-26T07:45:51.727Z,95362.41
2022-10-26T07:46:53.230Z,95365.00
2022-10-26T07:47:54.745Z,95354.34
2022-10-26T07:48:56.270Z,95363.69
2022-10-26T07:49:57.818Z,95359.94
2022-10-26T07:51:03.121Z,95367.63
2022-10-26T07:52:05.284Z,95363.69
2022-10-26T07:53:06.821Z,95359.41
2022-10-26T07:54:08.498Z,95356.59
2022-10-26T07:55:11.431Z,95359.41
2022-10-26T07:56:13.630Z,95367.81
2022-10-26T07:57:17.399Z,95357.34
2022-10-26T07:58:23.518Z,95355.09
2022-10-26T07:59:25.181Z,95356.03
2022-10-26T08:00:28.832Z,95355.84
2022-10-26T08:01:30.674Z,95358.09
2022-10-26T08:02:32.875Z,95358.66
2022-10-26T08:03:34.443Z,95358.09
2022-10-26T08:04:35.951Z,95352.47
2022-10-26T08:05:37.457Z,95357.34
2022-10-26T08:06:39.023Z,95358.09
2022-10-26T08:07:44.406Z,95358.09
2022-10-26T08:08:47.646Z,95355.28
2022-10-26T08:09:49.353Z,95362.41
2022-10-26T08:10:52.301Z,95354.00
2022-10-26T08:11:53.812Z,95358.09
2022-10-26T08:12:55.611Z,95357.34
2022-10-26T08:13:57.112Z,95347.63
2022-10-26T08:14:58.634Z,95355.84
2022-10-26T08:16:01.182Z,95349.47
2022-10-26T08:17:02.783Z,95355.09
2022-10-26T08:18:04.848Z,95360.69
2022-10-26T08:19:06.377Z,95358.09
2022-10-26T08:20:08.652Z,95350.97
2022-10-26T08:21:13.721Z,95353.22
2022-10-26T08:22:19.645Z,95360.34
2022-10-26T08:23:21.870Z,95348.41
2022-10-26T08:24:23.454Z,95358.09
2022-10-26T08:25:25.292Z,95354.00
2022-10-26T08:26:26.807Z,95354.00
2022-10-26T08:27:28.364Z,95358.09
2022-10-26T08:28:30.771Z,95354.53
2022-10-26T08:29:32.361Z,95354.00
2022-10-26T08:31:36.662Z,95355.28
2022-10-26T08:32:38.167Z,95349.69
2022-10-26T08:33:44.030Z,95342.78
2022-10-26T08:34:46.390Z,95354.75
2022-10-26T08:35:48.245Z,95348.94
2022-10-26T08:36:50.553Z,95348.75
2022-10-26T08:37:53.339Z,95347.22
2022-10-26T08:38:54.939Z,95352.47
2022-10-26T08:39:57.524Z,95345.38
2022-10-26T08:41:08.762Z,95346.69
2022-10-26T08:42:28.256Z,95345.94
2022-10-26T08:43:41.030Z,95347.44
2022-10-26T08:44:46.777Z,95344.06
2022-10-26T08:46:09.379Z,95346.88
2022-10-26T08:47:23.509Z,95348.19
2022-10-26T08:48:34.956Z,95352.47
2022-10-26T08:49:52.514Z,95354.75
2022-10-26T08:51:02.186Z,95355.50
2022-10-26T08:52:06.359Z,95354.00
2022-10-26T08:53:32.929Z,95353.22
2022-10-26T08:54:42.427Z,95358.84
2022-10-26T08:55:53.283Z,95358.09
2022-10-26T08:56:58.431Z,95363.16
2022-10-26T08:58:04.203Z,95359.63
2022-10-26T08:59:26.885Z,95360.69
2022-10-26T09:00:30.502Z,95368.22
2022-10-26T09:01:33.735Z,95359.63
2022-10-26T09:02:35.391Z,95362.41
2022-10-26T09:03:36.962Z,95362.19
2022-10-26T09:04:38.655Z,95355.84
2022-10-26T09:06:00.477Z,95356.59
2022-10-26T09:07:17.006Z,95358.66
2022-10-26T09:08:51.511Z,95358.44
2022-10-26T09:09:58.715Z,95352.69
2022-10-26T09:11:10.634Z,95357.34
2022-10-26T09:12:19.309Z,95354.53
2022-10-26T09:13:45.666Z,95355.28
2022-10-26T09:14:55.245Z,95356.59
2022-10-26T09:16:06.730Z,95357.34
2022-10-26T09:17:11.254Z,95354.75
2022-10-26T09:18:27.914Z,95349.13
2022-10-26T09:19:47.619Z,95352.47
2022-10-26T09:21:04.362Z,95353.03
2022-10-26T09:22:47.696Z,95348.00
2022-10-26T09:23:52.501Z,95356.81
2022-10-26T09:25:01.837Z,95352.47
2022-10-26T09:26:17.224Z,95350.41
2022-10-26T09:27:25.093Z,95356.59
2022-10-26T09:28:30.465Z,95350.22
2022-10-26T09:29:39.764Z,95353.94
2022-10-26T09:30:43.580Z,95349.06
2022-10-26T09:31:49.678Z,95361.38
2022-10-26T09:32:57.437Z,95346.06
2022-10-26T09:34:03.107Z,95346.28
2022-10-26T09:35:14.965Z,95348.13
2022-10-26T09:36:22.218Z,95349.06
2022-10-26T09:37:39.586Z,95348.66
2022-10-26T09:38:47.445Z,95341.19
2022-10-26T09:40:03.859Z,95343.47
2022-10-26T09:41:17.663Z,95347.56
2022-10-26T09:42:24.592Z,95346.47
2022-10-26T09:43:35.938Z,95348.34
2022-10-26T09:44:47.235Z,95345.31
2022-10-26T09:45:52.000Z,95341.94
2022-10-26T09:46:57.063Z,95339.56
2022-10-26T09:48:10.617Z,95345.31
2022-10-26T09:49:15.248Z,95340.84
2022-10-26T09:50:32.047Z,95344.97
2022-10-26T09:51:38.147Z,95334.50
2022-10-26T09:52:39.851Z,95340.09
2022-10-26T09:53:41.432Z,95338.28
2022-10-26T09:54:43.306Z,95335.66
2022-10-26T09:55:47.358Z,95334.91
2022-10-26T09:56:56.886Z,95338.28
2022-10-26T09:58:03.314Z,95333.41
2022-10-26T09:59:06.468Z,95339.41
2022-10-26T10:00:16.287Z,95337.19
2022-10-26T10:01:39.911Z,95330.03
2022-10-26T10:02:46.195Z,95327.88
2022-10-26T10:03:47.851Z,95321.50
2022-10-26T10:04:49.366Z,95330.44
2022-10-26T10:05:52.401Z,95319.97
2022-10-26T10:07:03.343Z,95317.75
2022-10-26T10:08:20.119Z,95323.34
2022-10-26T10:09:23.671Z,95317.94
2022-10-26T10:10:25.168Z,95326.38
2022-10-26T10:11:38.311Z,95320.34
2022-10-26T10:12:39.865Z,95320.94
2022-10-26T10:13:44.280Z,95320.94
2022-10-26T10:14:57.767Z,95317.75
2022-10-26T10:16:04.496Z,95319.44
2022-10-26T10:17:10.877Z,95318.88
2022-10-26T10:18:20.404Z,95311.56
2022-10-26T10:19:25.799Z,95312.53
2022-10-26T10:20:32.739Z,95312.53
2022-10-26T10:21:38.527Z,95311.44
2022-10-26T10:22:59.551Z,95306.75
2022-10-26T10:24:01.315Z,95317.03
2022-10-26T10:25:04.751Z,95307.13
2022-10-26T10:26:13.471Z,95308.41
2022-10-26T10:27:17.829Z,95312.19
2022-10-26T10:28:25.029Z,95308.63
2022-10-26T10:29:30.419Z,95315.00
2022-10-26T10:30:33.673Z,95310.69
2022-10-26T10:31:35.238Z,95308.41
2022-10-26T10:32:39.188Z,95314.44
2022-10-26T10:33:42.961Z,95312.94
2022-10-26T10:34:45.209Z,95311.63
2022-10-26T10:35:52.851Z,95302.06
2022-10-26T10:36:54.976Z,95306.97
2022-10-26T10:37:57.378Z,95305.13
2022-10-26T10:38:59.945Z,95306.28
2022-10-26T10:40:03.601Z,95301.41
2022-10-26T10:41:06.116Z,95295.63
2022-10-26T10:42:18.605Z,95296.91
2022-10-26T10:43:20.871Z,95291.69
2022-10-26T10:44:31.464Z,95298.44
2022-10-26T10:45:34.811Z,95298.84
2022-10-26T10:46:37.857Z,95293.22
2022-10-26T10:48:47.151Z,95294.31
2022-10-26T10:50:07.448Z,95288.72
2022-10-26T10:51:15.468Z,95290.59
2022-10-26T10:52:35.271Z,95287.22
2022-10-26T10:53:49.263Z,95288.16
2022-10-26T10:54:56.623Z,95292.09
2022-10-26T10:56:23.716Z,95290.41
2022-10-26T10:57:37.554Z,95286.50
2022-10-26T10:59:07.819Z,95286.50
2022-10-26T11:00:10.527Z,95283.91
2022-10-26T11:01:16.650Z,95287.25
2022-10-26T11:02:48.356Z,95283.28
2022-10-26T11:04:22.044Z,95280.13
2022-10-26T11:05:42.199Z,95276.78
2022-10-26T11:06:45.414Z,95278.06
2022-10-26T11:07:55.523Z,95272.28
2022-10-26T11:09:14.029Z,95271.53
2022-10-26T11:10:18.792Z,95278.84
2022-10-26T11:11:25.864Z,95264.03
2022-10-26T11:14:08.589Z,95272.06
2022-10-26T11:15:19.601Z,95271.53
2022-10-26T11:17:13.726Z,95273.38
2022-10-26T11:18:26.811Z,95268.16
2022-10-26T11:19:35.058Z,95265.56
2022-10-26T11:22:11.299Z,95270.44
2022-10-26T11:23:45.961Z,95266.66
2022-10-26T11:24:53.673Z,95275.66
2022-10-26T11:26:27.808Z,95269.66
2022-10-26T11:27:29.258Z,95267.81
2022-10-26T11:28:59.371Z,95276.19
2022-10-26T11:30:15.222Z,95274.88
2022-10-26T11:31:25.740Z,95271.53
2022-10-26T11:32:48.213Z,95266.28
2022-10-26T11:33:59.374Z,95258.81
2022-10-26T11:35:12.639Z,95263.28
2022-10-26T11:36:21.985Z,95257.69
2022-10-26T11:37:52.258Z,95259.56
2022-10-26T11:39:16.452Z,95260.31
2022-10-26T11:40:27.451Z,95259.22
2022-10-26T11:41:49.723Z,95250.59
2022-10-26T11:43:14.557Z,95260.69
2022-10-26T11:44:28.249Z,95252.28
2022-10-26T11:45:39.885Z,95246.84
2022-10-26T11:46:56.832Z,95255.84
2022-10-26T11:48:21.271Z,95257.34
2022-10-26T11:49:33.470Z,95254.53
2022-10-26T11:50:39.488Z,95257.34
2022-10-26T11:51:47.075Z,95253.03
2022-10-26T11:52:56.458Z,95253.03
2022-10-26T11:54:04.796Z,95247.44
2022-10-26T11:55:10.557Z,95249.88
2022-10-26T11:56:19.342Z,95249.13
2022-10-26T11:57:23.823Z,95245.00
2022-10-26T11:58:27.628Z,95243.53
2022-10-26T11:59:34.500Z,95249.13
2022-10-26T12:00:43.711Z,95246.13
2022-10-26T12:01:48.360Z,95250.63
2022-10-26T12:02:56.766Z,95240.94
2022-10-26T12:04:01.017Z,95246.53
2022-10-26T12:05:08.311Z,95242.78
2022-10-26T12:06:10.186Z,95238.34
2022-10-26T12:07:22.554Z,95241.66
2022-10-26T12:08:30.232Z,95247.13
2022-10-26T12:09:35.770Z,95238.91
2022-10-26T12:10:41.819Z,95240.22
2022-10-26T12:11:58.741Z,95241.31
2022-10-26T12:13:04.476Z,95242.06
2022-10-26T12:14:29.314Z,95237.34
2022-10-26T12:16:04.952Z,95239.25
2022-10-26T12:17:31.990Z,95243.94
2022-10-26T12:18:55.021Z,95244.13
2022-10-26T12:20:35.328Z,95236.84
2022-10-26T12:21:36.926Z,95238.72
2022-10-26T12:22:40.294Z,95242.84
2022-10-26T12:23:53.817Z,95239.81
2022-10-26T12:25:18.802Z,95246.19
2022-10-26T12:26:23.095Z,95245.81
2022-10-26T12:29:03.714Z,95239.69
2022-10-26T12:30:23.271Z,95238.72
2022-10-26T12:31:37.209Z,95239.47
2022-10-26T12:32:41.495Z,95244.72
2022-10-26T12:33:51.590Z,95240.44
2022-10-26T12:34:54.933Z,95239.28
2022-10-26T12:35:56.597Z,95243.41
2022-10-26T12:36:58.132Z,95237.63
2022-10-26T12:38:01.443Z,95243.22
2022-10-26T12:39:03.095Z,95243.22
2022-10-26T12:40:40.709Z,95244.88
2022-10-26T12:41:55.994Z,95241.72
2022-10-26T12:42:58.800Z,95235.00
2022-10-26T12:44:23.741Z,95237.63
2022-10-26T12:45:25.246Z,95242.47
2022-10-26T12:46:26.729Z,95244.69
2022-10-26T12:47:28.217Z,95236.06
2022-10-26T12:48:47.022Z,95246.13
2022-10-26T12:50:07.132Z,95238.25
2022-10-26T12:51:26.628Z,95238.78
2022-10-26T12:52:56.651Z,95239.34
2022-10-26T12:53:58.152Z,95245.00
2022-10-26T12:55:11.600Z,95238.25
2022-10-26T12:56:20.115Z,95240.31
2022-10-26T12:57:28.579Z,95246.31
2022-10-26T12:58:56.106Z,95238.78
2022-10-26T13:00:05.154Z,95248.00
2022-10-26T13:01:06.725Z,95242.00
2022-10-26T13:02:11.320Z,95246.84
2022-10-26T13:03:32.756Z,95244.22
2022-10-26T13:05:16.067Z,95247.22
2022-10-26T13:06:54.547Z,95242.00
2022-10-26T13:08:09.411Z,95254.75
2022-10-26T13:09:21.944Z,95248.38
2022-10-26T13:10:26.199Z,95253.09
2022-10-26T13:11:49.351Z,95254.75
2022-10-26T13:12:59.968Z,95248.81
2022-10-26T13:14:08.646Z,95252.53
2022-10-26T13:15:30.399Z,95248.56
2022-10-26T13:16:32.458Z,95245.09